Time;durP1;ratioP1;P1;durP2;ratioP2;P2;SDS_P1;SDS_P2;PMS_P1;PMS_P2;Temp;Humidity;BMP_temperature;BMP_pressure;BME280_temperature;BME280_humidity;BME280_pressure;Samples;Min_cycle;Max_cycle;Signal;HPM_P1;HPM_P2
2023/12/14 00:02:00;;;;;;;0.22;0.22;;;6.00;99.90;;;;;;5031473;28;20037;-70
2023/12/14 00:04:25;;;;;;;0.70;0.70;;;5.90;99.90;;;;;;5018664;28;20061;-71
2023/12/14 00:06:51;;;;;;;0.40;0.40;;;5.90;99.90;;;;;;5026860;28;20401;-71
2023/12/14 00:09:17;;;;;;;0.40;0.35;;;5.80;99.90;;;;;;5032885;28;20146;-71
2023/12/14 00:11:42;;;;;;;2.03;1.33;;;5.80;99.90;;;;;;5015522;28;20040;-71
2023/12/14 00:14:08;;;;;;;0.45;0.45;;;5.80;99.90;;;;;;5030176;28;20038;-71
2023/12/14 00:16:33;;;;;;;1.45;0.90;;;5.80;99.90;;;;;;5018104;28;20033;-70
2023/12/14 00:18:59;;;;;;;1.05;0.63;;;5.90;99.90;;;;;;5023717;28;20494;-71
2023/12/14 00:21:25;;;;;;;0.75;0.75;;;6.00;99.90;;;;;;5018625;28;20091;-71
2023/12/14 00:23:50;;;;;;;0.50;0.38;;;6.00;99.90;;;;;;5024515;28;20558;-71
2023/12/14 00:26:17;;;;;;;1.58;0.40;;;6.10;99.90;;;;;;5012424;28;20060;-70
2023/12/14 00:28:43;;;;;;;2.50;0.98;;;6.10;99.90;;;;;;5029828;28;20056;-71
2023/12/14 00:31:08;;;;;;;0.80;0.80;;;6.10;99.90;;;;;;5016911;28;20489;-71
2023/12/14 00:33:34;;;;;;;1.50;0.60;;;6.10;99.90;;;;;;5024980;28;20068;-70
2023/12/14 00:36:00;;;;;;;0.70;0.70;;;6.00;99.90;;;;;;5020287;28;20037;-71
2023/12/14 00:38:25;;;;;;;0.65;0.63;;;5.90;99.90;;;;;;5025340;28;20041;-71
2023/12/14 00:40:51;;;;;;;3.00;0.77;;;5.80;99.90;;;;;;5025511;28;20103;-72
2023/12/14 00:43:17;;;;;;;1.85;1.02;;;5.80;99.90;;;;;;5032339;28;20402;-71
2023/12/14 00:45:42;;;;;;;0.77;0.68;;;5.80;99.90;;;;;;5021403;28;20075;-70
2023/12/14 00:48:08;;;;;;;0.52;0.52;;;5.80;99.90;;;;;;5019870;28;21899;-72
2023/12/14 00:50:34;;;;;;;1.58;0.90;;;5.80;99.90;;;;;;5027340;28;20057;-71
2023/12/14 00:53:00;;;;;;;1.25;0.40;;;5.90;99.90;;;;;;5018933;28;20593;-72
2023/12/14 00:55:25;;;;;;;0.68;0.60;;;6.00;99.90;;;;;;5029485;28;20021;-72
2023/12/14 00:57:51;;;;;;;1.58;0.77;;;6.10;99.90;;;;;;5014602;28;20025;-70
2023/12/14 01:00:18;;;;;;;1.67;0.63;;;6.10;99.90;;;;;;5027970;28;20044;-71
2023/12/14 01:02:43;;;;;;;2.10;0.95;;;6.10;99.90;;;;;;5020104;28;20035;-71
2023/12/14 01:05:09;;;;;;;0.20;0.20;;;6.00;99.90;;;;;;5038962;28;20049;-70
2023/12/14 01:07:35;;;;;;;1.15;0.40;;;5.90;99.90;;;;;;5019286;28;20483;-70
2023/12/14 01:10:01;;;;;;;1.42;0.90;;;5.70;99.90;;;;;;5032074;28;20037;-70
2023/12/14 01:12:27;;;;;;;2.05;0.43;;;5.70;99.90;;;;;;5019988;28;20036;-71
2023/12/14 01:14:53;;;;;;;0.38;0.38;;;5.60;99.90;;;;;;5032806;28;20025;-71
2023/12/14 01:17:18;;;;;;;0.10;0.10;;;5.50;99.90;;;;;;5016328;28;20025;-71
2023/12/14 01:19:44;;;;;;;1.17;0.75;;;5.50;99.90;;;;;;5030227;28;20040;-72
2023/12/14 01:22:10;;;;;;;1.35;0.63;;;5.40;99.90;;;;;;5019791;28;21181;-70
2023/12/14 01:24:36;;;;;;;4.38;0.73;;;5.50;99.90;;;;;;5027805;28;20039;-70
2023/12/14 01:27:02;;;;;;;1.65;0.43;;;5.40;99.90;;;;;;5026402;28;21848;-70
2023/12/14 01:29:27;;;;;;;0.03;0.03;;;5.40;99.90;;;;;;5022924;28;20042;-70
2023/12/14 01:31:53;;;;;;;1.58;0.73;;;5.40;99.90;;;;;;5038042;28;20026;-71
2023/12/14 01:34:19;;;;;;;1.58;0.35;;;5.50;99.90;;;;;;5024461;28;20548;-71
2023/12/14 01:36:44;;;;;;;0.70;0.50;;;5.60;99.90;;;;;;5039821;28;20018;-72
2023/12/14 01:39:10;;;;;;;0.32;0.32;;;5.70;99.90;;;;;;5016885;28;20125;-71
2023/12/14 01:41:36;;;;;;;1.15;0.50;;;5.70;99.90;;;;;;5031731;28;20209;-72
2023/12/14 01:44:01;;;;;;;0.15;0.15;;;5.80;99.90;;;;;;5015143;28;20030;-72
2023/12/14 01:46:27;;;;;;;1.48;0.70;;;5.80;99.90;;;;;;5023160;28;20053;-71
2023/12/14 01:48:53;;;;;;;0.88;0.68;;;5.90;99.90;;;;;;5018503;28;20044;-71
2023/12/14 01:51:19;;;;;;;5.07;0.52;;;5.90;99.90;;;;;;5023672;28;20041;-72
2023/12/14 01:53:45;;;;;;;0.35;0.35;;;5.90;99.90;;;;;;5018044;28;20547;-71
2023/12/14 01:56:10;;;;;;;0.25;0.25;;;5.80;99.90;;;;;;5030294;28;20133;-72
2023/12/14 01:58:36;;;;;;;0.93;0.60;;;5.80;99.90;;;;;;5014857;28;20346;-72
2023/12/14 02:01:34;;;;;;;2.70;0.32;;;5.70;99.90;;;;;;5025731;28;20098;-71
2023/12/14 02:04:01;;;;;;;7.22;1.13;;;5.60;99.90;;;;;;5016983;28;20033;-71
2023/12/14 02:06:26;;;;;;;1.45;0.50;;;5.40;99.90;;;;;;5024271;28;20116;-71
2023/12/14 02:08:53;;;;;;;0.10;0.10;;;5.20;99.90;;;;;;5018887;28;20087;-71
2023/12/14 02:11:18;;;;;;;0.68;0.35;;;5.20;99.90;;;;;;5026264;28;21852;-72
2023/12/14 02:13:44;;;;;;;1.70;0.40;;;5.00;99.90;;;;;;5017953;28;20030;-71
2023/12/14 02:16:09;;;;;;;1.83;0.90;;;5.00;99.90;;;;;;5022936;28;20030;-72
2023/12/14 02:18:35;;;;;;;1.17;0.30;;;4.90;99.90;;;;;;5024787;28;20653;-71
2023/12/14 02:21:01;;;;;;;1.02;0.55;;;4.90;99.90;;;;;;5018900;28;20079;-71
2023/12/14 02:23:26;;;;;;;0.40;0.40;;;4.80;99.90;;;;;;5026402;28;20045;-71
2023/12/14 02:25:52;;;;;;;0.15;0.15;;;4.80;99.90;;;;;;5016289;28;20490;-71
2023/12/14 02:28:17;;;;;;;1.15;0.85;;;4.70;99.90;;;;;;5027971;28;20056;-71
2023/12/14 02:30:44;;;;;;;0.90;0.77;;;4.80;99.90;;;;;;5012084;28;20151;-70
2023/12/14 02:33:09;;;;;;;0.95;0.25;;;4.80;99.90;;;;;;5023198;28;20032;-71
2023/12/14 02:35:35;;;;;;;0.22;0.22;;;4.80;99.90;;;;;;5019385;28;20033;-71
2023/12/14 02:38:00;;;;;;;11.65;0.43;;;4.70;99.90;;;;;;5029937;28;20036;-71
2023/12/14 02:40:26;;;;;;;0.98;0.35;;;4.70;99.90;;;;;;5020362;28;20037;-71
2023/12/14 02:42:52;;;;;;;0.32;0.32;;;4.50;99.90;;;;;;5030157;28;21831;-70
2023/12/14 02:45:18;;;;;;;2.67;0.60;;;4.50;99.90;;;;;;5018904;28;20041;-71
2023/12/14 02:47:43;;;;;;;0.60;0.60;;;4.50;99.90;;;;;;5033225;28;20033;-71
2023/12/14 02:50:09;;;;;;;0.50;0.50;;;4.60;99.90;;;;;;5022811;28;20033;-71
2023/12/14 02:52:35;;;;;;;0.93;0.60;;;4.70;99.90;;;;;;5027225;28;20063;-72
2023/12/14 02:55:01;;;;;;;0.55;0.50;;;4.80;99.90;;;;;;5023872;28;20087;-72
2023/12/14 02:57:26;;;;;;;0.68;0.68;;;4.90;99.90;;;;;;5029857;28;20132;-70
2023/12/14 02:59:52;;;;;;;3.17;0.38;;;5.00;99.90;;;;;;5026862;28;20034;-71
2023/12/14 03:02:17;;;;;;;0.90;0.90;;;5.10;99.90;;;;;;5014900;28;20509;-72
2023/12/14 03:04:43;;;;;;;0.40;0.40;;;5.10;99.90;;;;;;5031121;28;20037;-72
2023/12/14 03:07:09;;;;;;;4.13;0.90;;;5.00;99.90;;;;;;5017124;28;20040;-72
2023/12/14 03:09:35;;;;;;;0.25;0.22;;;5.00;99.90;;;;;;5032322;28;20044;-71
2023/12/14 03:12:01;;;;;;;0.75;0.75;;;4.90;99.90;;;;;;5019717;28;20627;-72
2023/12/14 03:14:32;;;;;;;1.45;0.45;;;4.90;99.90;;;;;;5033333;28;20040;-71
2023/12/14 03:16:58;;;;;;;0.47;0.40;;;4.80;99.90;;;;;;5034042;28;20040;-71
2023/12/14 03:19:23;;;;;;;0.43;0.28;;;4.60;99.90;;;;;;5026900;28;20049;-71
2023/12/14 03:21:49;;;;;;;4.38;1.15;;;4.60;99.90;;;;;;5015945;28;20037;-70
2023/12/14 03:24:14;;;;;;;0.47;0.47;;;4.50;99.90;;;;;;5028916;28;20029;-71
2023/12/14 03:26:40;;;;;;;0.57;0.30;;;4.40;99.90;;;;;;5015097;28;20421;-72
2023/12/14 03:29:07;;;;;;;3.03;0.98;;;4.30;99.90;;;;;;5034452;28;20410;-72
2023/12/14 03:31:33;;;;;;;0.25;0.25;;;4.20;99.90;;;;;;5016775;28;20330;-72
2023/12/14 03:33:59;;;;;;;0.20;0.13;;;4.10;99.90;;;;;;5026050;28;20546;-72
2023/12/14 03:36:26;;;;;;;0.80;0.70;;;4.10;99.90;;;;;;5024197;28;20040;-71
2023/12/14 03:38:52;;;;;;;2.75;0.50;;;4.10;99.90;;;;;;5023878;28;20036;-72
2023/12/14 03:41:17;;;;;;;0.32;0.32;;;4.00;99.90;;;;;;5029180;28;20044;-72
2023/12/14 03:43:44;;;;;;;0.20;0.15;;;4.00;99.90;;;;;;5020290;28;20124;-71
2023/12/14 03:46:10;;;;;;;0.20;0.20;;;3.90;99.90;;;;;;5025811;28;20156;-72
2023/12/14 03:48:35;;;;;;;0.10;0.10;;;3.80;99.90;;;;;;5028166;28;20085;-72
2023/12/14 03:51:03;;;;;;;1.17;0.63;;;3.80;99.90;;;;;;5033597;28;20032;-71
2023/12/14 03:53:29;;;;;;;0.85;0.32;;;3.70;99.90;;;;;;5015153;28;20079;-72
2023/12/14 03:55:55;;;;;;;0.40;0.22;;;3.80;99.90;;;;;;5029397;28;20074;-72
2023/12/14 03:58:21;;;;;;;4.18;0.38;;;3.80;99.90;;;;;;5016640;28;20051;-72
2023/12/14 04:00:47;;;;;;;0.20;0.20;;;3.80;99.90;;;;;;5024260;28;20029;-72
2023/12/14 04:03:12;;;;;;;0.47;0.47;;;3.70;99.90;;;;;;5020354;28;20025;-71
2023/12/14 04:05:39;;;;;;;0.98;0.55;;;3.70;99.90;;;;;;5030283;28;20174;-73
2023/12/14 04:08:05;;;;;;;1.48;0.75;;;3.60;99.90;;;;;;5019721;28;20028;-71
2023/12/14 04:10:30;;;;;;;0.85;0.50;;;3.50;99.90;;;;;;5033330;28;20645;-71
2023/12/14 04:12:56;;;;;;;0.45;0.22;;;3.50;99.90;;;;;;5022365;28;20032;-72
2023/12/14 04:15:22;;;;;;;1.33;0.43;;;3.40;99.90;;;;;;5035093;28;20033;-71
2023/12/14 04:17:47;;;;;;;0.45;0.38;;;3.30;99.90;;;;;;5032685;28;20037;-71
2023/12/14 04:20:15;;;;;;;0.40;0.40;;;3.30;99.90;;;;;;5024445;28;20413;-71
2023/12/14 04:22:42;;;;;;;0.55;0.32;;;3.30;99.90;;;;;;5029854;28;20112;-71
2023/12/14 04:25:08;;;;;;;1.08;0.22;;;3.30;99.90;;;;;;5016170;28;20552;-71
2023/12/14 04:27:34;;;;;;;0.30;0.25;;;3.30;99.90;;;;;;5029553;28;20041;-71
2023/12/14 04:29:59;;;;;;;3.50;0.85;;;3.40;99.90;;;;;;5020275;28;20041;-72
2023/12/14 04:32:25;;;;;;;0.25;0.25;;;3.40;99.90;;;;;;5024766;28;20575;-71
2023/12/14 04:34:51;;;;;;;1.48;1.38;;;3.40;99.90;;;;;;5016994;28;20033;-71
2023/12/14 04:37:16;;;;;;;0.10;0.10;;;3.40;99.90;;;;;;5028748;28;20955;-71
2023/12/14 04:39:42;;;;;;;0.20;0.20;;;3.40;99.90;;;;;;5016781;28;20067;-72
2023/12/14 04:42:08;;;;;;;0.32;0.32;;;3.30;99.90;;;;;;5033701;28;20393;-72
2023/12/14 04:44:33;;;;;;;0.10;0.10;;;3.30;99.90;;;;;;5020210;28;20029;-71
2023/12/14 04:46:59;;;;;;;0.70;0.25;;;3.40;99.90;;;;;;5027531;28;20025;-71
2023/12/14 04:49:25;;;;;;;1.40;0.77;;;3.40;99.90;;;;;;5021744;28;20021;-72
2023/12/14 04:51:50;;;;;;;0.65;0.57;;;3.40;99.90;;;;;;5026140;28;20018;-71
2023/12/14 04:54:16;;;;;;;2.30;0.65;;;3.40;99.90;;;;;;5014354;28;20040;-71
2023/12/14 04:56:45;;;;;;;0.68;0.68;;;3.40;99.90;;;;;;5028375;28;20383;-72
2023/12/14 04:59:10;;;;;;;0.15;0.15;;;3.50;99.90;;;;;;5021974;28;20063;-71
2023/12/14 05:01:36;;;;;;;0.38;0.38;;;3.50;99.90;;;;;;5026642;28;20622;-72
2023/12/14 05:04:02;;;;;;;0.47;0.47;;;3.60;99.90;;;;;;5017055;28;20678;-72
2023/12/14 05:06:29;;;;;;;0.30;0.30;;;3.60;99.90;;;;;;5012776;28;20026;-71
2023/12/14 05:08:55;;;;;;;1.40;0.82;;;3.60;99.90;;;;;;5031936;28;20025;-71
2023/12/14 05:11:21;;;;;;;0.55;0.45;;;3.60;99.90;;;;;;5016703;28;20033;-72
2023/12/14 05:13:46;;;;;;;11.00;0.57;;;3.60;99.90;;;;;;5015551;28;20115;-70
2023/12/14 05:16:16;;;;;;;1.55;1.38;;;3.60;99.90;;;;;;5019941;28;20090;-72
2023/12/14 05:18:42;;;;;;;1.65;1.00;;;3.60;99.90;;;;;;5031405;28;20797;-72
2023/12/14 05:21:07;;;;;;;1.30;0.22;;;3.60;99.90;;;;;;5015408;28;20033;-71
2023/12/14 05:23:33;;;;;;;1.17;0.60;;;3.60;99.90;;;;;;5031662;28;20048;-71
2023/12/14 05:25:58;;;;;;;0.35;0.35;;;3.70;99.90;;;;;;5013648;28;20504;-71
2023/12/14 05:28:24;;;;;;;0.20;0.20;;;3.80;99.90;;;;;;5047118;28;20251;-71
2023/12/14 05:30:50;;;;;;;3.33;0.50;;;3.80;99.90;;;;;;5022244;28;20083;-71
2023/12/14 05:33:16;;;;;;;0.32;0.32;;;3.90;99.90;;;;;;5026930;28;20056;-71
2023/12/14 05:35:41;;;;;;;0.20;0.20;;;4.00;99.90;;;;;;5019018;28;20028;-71
2023/12/14 05:38:07;;;;;;;0.95;0.70;;;4.00;99.90;;;;;;5030007;28;20041;-71
2023/12/14 05:40:33;;;;;;;0.90;0.45;;;4.20;99.90;;;;;;5019015;28;20413;-71
2023/12/14 05:42:58;;;;;;;0.40;0.38;;;4.20;99.90;;;;;;5025657;28;20041;-72
2023/12/14 05:45:24;;;;;;;0.40;0.40;;;4.30;99.90;;;;;;5028862;28;20030;-71
2023/12/14 05:47:51;;;;;;;1.75;0.25;;;4.30;99.90;;;;;;5012829;28;20038;-71
2023/12/14 05:50:16;;;;;;;2.85;0.98;;;4.30;99.90;;;;;;5030406;28;20025;-71
2023/12/14 05:52:42;;;;;;;1.00;0.60;;;4.40;99.90;;;;;;5013348;28;20043;-71
2023/12/14 05:55:10;;;;;;;0.68;0.45;;;4.50;99.90;;;;;;5024998;28;20041;-71
2023/12/14 05:57:36;;;;;;;0.43;0.32;;;4.60;99.90;;;;;;5017235;28;20029;-71
2023/12/14 06:00:03;;;;;;;1.15;0.35;;;4.60;99.90;;;;;;5031828;28;20038;-71
2023/12/14 06:02:30;;;;;;;0.55;0.55;;;4.60;99.90;;;;;;5022552;28;20052;-72
2023/12/14 06:04:57;;;;;;;0.25;0.20;;;4.60;99.90;;;;;;5031428;28;20036;-72
2023/12/14 06:07:23;;;;;;;0.60;0.60;;;4.60;99.90;;;;;;5012610;28;20117;-72
2023/12/14 06:09:49;;;;;;;0.25;0.25;;;4.70;99.90;;;;;;5026161;28;20041;-71
2023/12/14 06:12:14;;;;;;;0.40;0.40;;;4.70;99.90;;;;;;5021028;28;20049;-70
2023/12/14 06:14:40;;;;;;;0.30;0.30;;;4.70;99.90;;;;;;5027909;28;20502;-71
2023/12/14 06:17:06;;;;;;;0.30;0.30;;;4.80;99.90;;;;;;5019366;28;20110;-71
2023/12/14 06:19:32;;;;;;;5.00;0.98;;;4.80;99.90;;;;;;5021816;28;20033;-71
2023/12/14 06:21:58;;;;;;;2.30;0.45;;;4.80;99.90;;;;;;5021061;28;20043;-71
2023/12/14 06:24:23;;;;;;;0.60;0.32;;;4.80;99.90;;;;;;5030590;28;20033;-71
2023/12/14 06:26:49;;;;;;;0.30;0.30;;;4.90;99.90;;;;;;5019251;28;20046;-71
2023/12/14 06:29:15;;;;;;;0.47;0.45;;;4.90;99.90;;;;;;5024353;28;20087;-71
2023/12/14 06:31:41;;;;;;;1.00;0.70;;;4.90;99.90;;;;;;5033062;28;20052;-72
2023/12/14 06:34:07;;;;;;;1.50;1.00;;;4.90;99.90;;;;;;5016700;28;20835;-72
2023/12/14 06:36:34;;;;;;;1.92;0.40;;;4.90;99.90;;;;;;5031596;28;20072;-72
2023/12/14 06:39:00;;;;;;;4.03;1.15;;;4.90;99.90;;;;;;5018560;28;20028;-70
2023/12/14 06:41:27;;;;;;;2.28;0.77;;;5.00;99.90;;;;;;5027443;28;20028;-72
2023/12/14 06:43:54;;;;;;;0.25;0.25;;;5.00;99.90;;;;;;5024949;28;20627;-72
2023/12/14 06:46:19;;;;;;;0.68;0.60;;;5.00;99.90;;;;;;5030352;28;20034;-72
2023/12/14 06:48:46;;;;;;;0.68;0.15;;;4.90;99.90;;;;;;5022955;28;20046;-72
2023/12/14 06:51:11;;;;;;;4.47;0.80;;;4.90;99.90;;;;;;5031452;28;20108;-71
2023/12/14 06:53:41;;;;;;;0.10;0.10;;;4.90;99.90;;;;;;5013973;28;20515;-72
2023/12/14 06:56:10;;;;;;;0.38;0.38;;;5.00;99.90;;;;;;5032299;28;20449;-71
2023/12/14 06:58:37;;;;;;;1.33;0.47;;;5.10;99.90;;;;;;5023704;28;20452;-71
2023/12/14 07:01:03;;;;;;;1.80;0.77;;;5.10;99.90;;;;;;5031133;28;20041;-71
2023/12/14 07:03:28;;;;;;;0.85;0.65;;;5.10;99.90;;;;;;5020290;28;20103;-72
2023/12/14 07:05:54;;;;;;;0.75;0.40;;;5.10;99.90;;;;;;5030593;28;20037;-71
2023/12/14 07:08:19;;;;;;;1.45;0.35;;;5.20;99.90;;;;;;5023390;28;20037;-72
2023/12/14 07:10:45;;;;;;;1.25;0.90;;;5.20;99.90;;;;;;5026693;28;20121;-71
2023/12/14 07:13:11;;;;;;;2.78;0.77;;;5.20;99.90;;;;;;5018657;28;20017;-72
2023/12/14 07:15:36;;;;;;;1.40;0.90;;;5.30;99.90;;;;;;5022532;28;20480;-71
2023/12/14 07:18:02;;;;;;;3.17;0.80;;;5.20;99.90;;;;;;5029975;28;20703;-71
2023/12/14 07:20:28;;;;;;;0.47;0.47;;;5.30;99.90;;;;;;5014894;28;20136;-72
2023/12/14 07:22:53;;;;;;;0.57;0.22;;;5.20;99.90;;;;;;5024245;28;20160;-70
2023/12/14 07:25:19;;;;;;;2.45;0.75;;;5.20;99.90;;;;;;5021165;28;20579;-71
2023/12/14 07:27:46;;;;;;;0.40;0.40;;;5.20;99.90;;;;;;5031942;28;20060;-70
2023/12/14 07:30:12;;;;;;;1.15;0.90;;;5.20;99.90;;;;;;5024320;28;20033;-71
2023/12/14 07:32:38;;;;;;;0.20;0.20;;;5.20;99.90;;;;;;5032457;28;20061;-71
2023/12/14 07:35:05;;;;;;;4.30;0.60;;;5.30;99.90;;;;;;5039730;28;20021;-71
2023/12/14 07:37:31;;;;;;;0.20;0.20;;;5.40;99.90;;;;;;5037773;28;21692;-70
2023/12/14 07:39:57;;;;;;;0.90;0.90;;;5.40;99.90;;;;;;5021617;28;20152;-71
2023/12/14 07:42:23;;;;;;;0.45;0.45;;;5.40;99.90;;;;;;5038522;28;20037;-71
2023/12/14 07:44:49;;;;;;;9.25;1.42;;;5.40;99.90;;;;;;5016935;28;20367;-71
2023/12/14 07:47:15;;;;;;;1.40;0.35;;;5.40;99.90;;;;;;5022479;28;20037;-71
2023/12/14 07:49:40;;;;;;;0.30;0.30;;;5.40;99.90;;;;;;5018592;28;20477;-71
2023/12/14 07:52:10;;;;;;;4.80;0.57;;;5.30;99.90;;;;;;5015117;28;20086;-70
2023/12/14 07:54:36;;;;;;;1.30;1.20;;;5.30;99.90;;;;;;5024237;28;20025;-71
2023/12/14 07:57:02;;;;;;;0.32;0.32;;;5.40;99.90;;;;;;5013983;28;20040;-71
2023/12/14 07:59:29;;;;;;;3.50;0.35;;;5.40;99.90;;;;;;5026906;28;20037;-71
2023/12/14 08:01:55;;;;;;;0.38;0.32;;;5.40;99.90;;;;;;5013710;28;20033;-71
2023/12/14 08:04:21;;;;;;;2.78;0.40;;;5.50;99.90;;;;;;5028843;28;20083;-71
2023/12/14 08:06:46;;;;;;;2.63;0.77;;;5.40;99.90;;;;;;5005785;28;20470;-71
2023/12/14 08:09:12;;;;;;;2.72;1.63;;;5.40;99.90;;;;;;5019235;28;20041;-71
2023/12/14 08:11:38;;;;;;;0.10;0.10;;;5.50;99.90;;;;;;5009226;28;20616;-71
2023/12/14 08:14:03;;;;;;;0.75;0.75;;;5.60;99.90;;;;;;5032907;28;20040;-72
2023/12/14 08:16:29;;;;;;;1.63;0.90;;;5.60;99.90;;;;;;5013521;28;20063;-71
2023/12/14 08:18:55;;;;;;;3.50;1.00;;;5.70;99.90;;;;;;5027146;28;20017;-72
2023/12/14 08:21:21;;;;;;;0.57;0.32;;;5.80;99.90;;;;;;5008285;28;20043;-72
2023/12/14 08:23:46;;;;;;;1.00;0.65;;;5.80;99.90;;;;;;5019020;28;20051;-72
2023/12/14 08:26:12;;;;;;;2.08;0.77;;;5.90;99.90;;;;;;5007857;28;20128;-72
2023/12/14 08:28:40;;;;;;;1.55;0.95;;;5.90;99.90;;;;;;5012927;28;20778;-72
2023/12/14 08:31:05;;;;;;;6.22;1.60;;;6.00;99.90;;;;;;5013692;28;20034;-72
2023/12/14 08:33:31;;;;;;;2.17;0.90;;;5.70;99.90;;;;;;5009292;28;20355;-72
2023/12/14 08:35:57;;;;;;;4.03;1.60;;;5.60;99.90;;;;;;5013014;28;20033;-72
2023/12/14 08:38:23;;;;;;;11.75;1.65;;;5.70;99.90;;;;;;5004788;28;20034;-70
2023/12/14 08:40:49;;;;;;;0.75;0.28;;;5.70;99.90;;;;;;5012141;28;20059;-71
2023/12/14 08:43:15;;;;;;;0.35;0.35;;;5.80;99.90;;;;;;5005336;28;20544;-72
2023/12/14 08:45:40;;;;;;;1.67;0.98;;;5.90;99.90;;;;;;5020411;28;20052;-73
2023/12/14 08:48:06;;;;;;;1.00;0.52;;;6.00;99.90;;;;;;5002925;28;20536;-71
2023/12/14 08:50:32;;;;;;;2.40;1.00;;;5.90;99.90;;;;;;5018014;28;20040;-72
2023/12/14 08:52:59;;;;;;;1.95;0.60;;;5.90;99.90;;;;;;5004574;28;20520;-72
2023/12/14 08:55:25;;;;;;;1.05;0.63;;;6.10;99.90;;;;;;5011077;28;20516;-74
2023/12/14 08:57:51;;;;;;;2.05;0.57;;;6.30;99.90;;;;;;5008860;28;20048;-71
2023/12/14 09:00:18;;;;;;;0.65;0.50;;;6.40;99.90;;;;;;5013920;28;20029;-73
2023/12/14 09:02:45;;;;;;;2.38;0.95;;;6.50;99.90;;;;;;5008691;28;20057;-70
2023/12/14 09:05:13;;;;;;;0.65;0.63;;;6.60;99.90;;;;;;5021443;28;20072;-71
2023/12/14 09:07:38;;;;;;;0.88;0.40;;;6.60;99.90;;;;;;5007706;28;20048;-70
2023/12/14 09:10:06;;;;;;;8.10;1.08;;;6.60;99.90;;;;;;5018888;28;20041;-69
2023/12/14 09:12:33;;;;;;;5.75;1.30;;;6.60;99.90;;;;;;5011146;28;20847;-76
2023/12/14 09:14:59;;;;;;;0.65;0.30;;;6.50;99.90;;;;;;5014854;28;20101;-75
2023/12/14 09:17:25;;;;;;;4.80;0.60;;;6.70;99.90;;;;;;5018359;28;20408;-76
2023/12/14 09:19:50;;;;;;;0.57;0.35;;;6.80;99.90;;;;;;5011037;28;20045;-70
2023/12/14 09:22:17;;;;;;;0.68;0.50;;;6.90;99.90;;;;;;5019450;28;20116;-71
2023/12/14 09:24:43;;;;;;;1.52;0.43;;;7.00;99.70;;;;;;5010254;28;20044;-74
2023/12/14 09:27:08;;;;;;;1.30;1.02;;;7.00;99.30;;;;;;5016807;28;20041;-73
2023/12/14 09:29:34;;;;;;;0.45;0.38;;;7.20;99.10;;;;;;5006840;28;20037;-72
2023/12/14 09:31:59;;;;;;;1.88;0.70;;;7.30;98.90;;;;;;5019855;28;20041;-72
2023/12/14 09:34:25;;;;;;;4.95;0.98;;;7.30;98.60;;;;;;5005290;28;20112;-73
2023/12/14 09:36:52;;;;;;;0.85;0.75;;;7.30;99.00;;;;;;5022554;28;20036;-71
2023/12/14 09:39:19;;;;;;;0.88;0.68;;;7.40;98.50;;;;;;5012834;28;20142;-70
2023/12/14 09:41:46;;;;;;;0.77;0.75;;;7.50;98.30;;;;;;5012148;28;20036;-73
2023/12/14 09:44:12;;;;;;;1.15;0.50;;;7.50;98.20;;;;;;5006899;28;20037;-74
2023/12/14 09:46:38;;;;;;;0.28;0.28;;;7.70;98.10;;;;;;5022015;28;20093;-74
2023/12/14 09:49:04;;;;;;;1.63;0.98;;;7.80;97.80;;;;;;5011174;28;20037;-72
2023/12/14 09:51:31;;;;;;;0.43;0.43;;;7.80;97.10;;;;;;5027080;28;20853;-71
2023/12/14 09:53:58;;;;;;;2.75;1.10;;;7.80;97.10;;;;;;5041007;28;20033;-71
2023/12/14 09:56:25;;;;;;;1.15;0.90;;;7.70;96.80;;;;;;5021055;28;20064;-74
2023/12/14 09:58:51;;;;;;;0.90;0.90;;;7.60;96.80;;;;;;5022302;28;20106;-74
2023/12/14 10:01:25;;;;;;;1.17;0.60;;;7.70;96.90;;;;;;5009899;28;20041;-72
2023/12/14 10:04:09;;;;;;;0.70;0.63;;;7.60;96.20;;;;;;5025444;28;20036;-72
2023/12/14 10:06:35;;;;;;;0.88;0.70;;;7.60;96.00;;;;;;5016166;28;20045;-72
2023/12/14 10:09:01;;;;;;;0.52;0.40;;;7.50;96.40;;;;;;5022120;28;20029;-73
2023/12/14 10:11:26;;;;;;;1.00;0.40;;;7.50;96.40;;;;;;5013095;28;21288;-72
2023/12/14 10:13:52;;;;;;;1.52;0.80;;;7.70;96.60;;;;;;5022145;28;20686;-70
2023/12/14 10:16:31;;;;;;;6.28;1.35;;;7.90;96.40;;;;;;5015422;28;20041;-74
2023/12/14 10:18:58;;;;;;;0.82;0.70;;;8.10;96.20;;;;;;5027194;28;20421;-74
2023/12/14 10:21:26;;;;;;;0.55;0.45;;;8.30;95.90;;;;;;5012473;28;20729;-73
2023/12/14 10:23:52;;;;;;;0.30;0.30;;;8.50;95.40;;;;;;5027758;28;20044;-71
2023/12/14 10:26:18;;;;;;;1.65;0.85;;;8.60;95.50;;;;;;5013843;28;20033;-72
2023/12/14 10:28:43;;;;;;;1.23;1.00;;;8.70;95.10;;;;;;5041811;28;20041;-71
2023/12/14 10:31:10;;;;;;;4.30;1.30;;;8.80;94.90;;;;;;5014283;28;20053;-74
2023/12/14 10:33:36;;;;;;;0.85;0.68;;;8.90;95.30;;;;;;5022685;28;20117;-73
2023/12/14 10:36:04;;;;;;;1.52;0.93;;;9.00;95.00;;;;;;5012628;28;20025;-71
2023/12/14 10:38:32;;;;;;;0.65;0.65;;;8.80;94.80;;;;;;5023135;28;20036;-71
2023/12/14 10:40:58;;;;;;;2.63;0.60;;;8.60;95.30;;;;;;5012364;28;20033;-71
2023/12/14 10:43:24;;;;;;;5.22;0.75;;;8.50;95.40;;;;;;5022828;28;20028;-73
2023/12/14 10:45:51;;;;;;;0.93;0.55;;;8.40;95.30;;;;;;5022390;28;20034;-74
2023/12/14 10:48:20;;;;;;;0.75;0.73;;;8.40;95.60;;;;;;5019512;28;20111;-71
2023/12/14 10:50:48;;;;;;;0.43;0.40;;;8.50;95.60;;;;;;5010083;28;20037;-73
2023/12/14 10:53:14;;;;;;;4.50;0.95;;;8.40;95.70;;;;;;5016315;28;20417;-74
2023/12/14 10:55:43;;;;;;;4.68;1.08;;;8.40;95.80;;;;;;5013912;28;20456;-72
2023/12/14 10:58:10;;;;;;;;;;;8.40;96.00;;;;;;5007923;28;20041;-72
2023/12/14 11:00:36;;;;;;;0.40;0.40;;;8.40;95.90;;;;;;5019361;28;21691;-72
2023/12/14 11:03:04;;;;;;;0.80;0.55;;;8.30;95.90;;;;;;5014055;28;20494;-73
2023/12/14 11:05:33;;;;;;;1.63;0.83;;;8.30;96.30;;;;;;5037809;28;20029;-72
2023/12/14 11:08:09;;;;;;;2.03;0.82;;;8.50;96.20;;;;;;5027312;28;20293;-71
2023/12/14 11:10:40;;;;;;;2.08;0.50;;;8.50;96.20;;;;;;5017726;28;20045;-70
2023/12/14 11:13:10;;;;;;;0.70;0.55;;;8.70;96.20;;;;;;5008129;28;20076;-72
2023/12/14 11:15:37;;;;;;;3.95;0.40;;;8.80;96.30;;;;;;5019367;28;20140;-73
2023/12/14 11:18:24;;;;;;;0.70;0.70;;;8.90;95.50;;;;;;5011688;28;20034;-72
2023/12/14 11:20:55;;;;;;;2.67;1.20;;;9.10;95.20;;;;;;5022005;28;20029;-72
2023/12/14 11:23:29;;;;;;;1.65;1.05;;;9.20;94.90;;;;;;5009934;28;20064;-71
2023/12/14 11:25:59;;;;;;;1.45;0.50;;;9.20;94.60;;;;;;5019485;28;20049;-71
2023/12/14 11:28:26;;;;;;;3.20;0.90;;;9.20;94.30;;;;;;5006570;28;20049;-69
2023/12/14 11:30:52;;;;;;;0.60;0.60;;;9.30;94.20;;;;;;5023407;28;21552;-72
2023/12/14 11:33:18;;;;;;;1.15;0.75;;;9.40;94.70;;;;;;5012384;28;20036;-70
2023/12/14 11:35:43;;;;;;;1.38;0.55;;;9.50;94.70;;;;;;5017564;28;20109;-73
2023/12/14 11:38:12;;;;;;;2.38;1.20;;;9.40;94.20;;;;;;5006315;28;20072;-73
2023/12/14 11:40:39;;;;;;;2.90;1.17;;;9.50;93.70;;;;;;5020060;28;20060;-74
2023/12/14 11:43:07;;;;;;;2.47;0.50;;;9.40;93.90;;;;;;5006620;28;20033;-73
2023/12/14 11:45:37;;;;;;;3.85;0.95;;;9.40;93.90;;;;;;5019864;28;20061;-75
2023/12/14 11:48:05;;;;;;;4.40;1.00;;;9.40;94.40;;;;;;5007823;28;20030;-74
2023/12/14 11:50:33;;;;;;;0.60;0.60;;;9.20;94.70;;;;;;5016695;28;20026;-72
2023/12/14 11:53:00;;;;;;;1.90;0.93;;;9.00;95.40;;;;;;5013074;28;20044;-74
2023/12/14 11:55:26;;;;;;;1.65;0.90;;;9.10;95.50;;;;;;5017464;28;20029;-75
2023/12/14 11:57:53;;;;;;;4.93;1.10;;;9.10;95.90;;;;;;5023951;28;20509;-74
2023/12/14 12:00:25;;;;;;;1.20;0.60;;;8.90;96.30;;;;;;5022580;28;20052;-75
2023/12/14 12:02:51;;;;;;;0.95;0.60;;;8.90;96.70;;;;;;5022021;28;20037;-75
2023/12/14 12:05:18;;;;;;;3.72;2.17;;;9.00;96.60;;;;;;5016903;28;21872;-75
2023/12/14 12:07:45;;;;;;;3.47;0.75;;;9.10;97.00;;;;;;5023966;28;20164;-73
2023/12/14 12:10:11;;;;;;;2.95;1.63;;;8.90;97.40;;;;;;5020483;28;20034;-74
2023/12/14 12:12:37;;;;;;;9.63;1.13;;;9.00;97.70;;;;;;5026388;28;20720;-72
2023/12/14 12:15:04;;;;;;;1.25;1.10;;;9.20;97.50;;;;;;5014358;28;20052;-73
2023/12/14 12:17:33;;;;;;;1.73;1.10;;;9.30;97.60;;;;;;5026359;28;20041;-73
2023/12/14 12:19:59;;;;;;;1.00;0.70;;;9.30;97.90;;;;;;5016465;28;20440;-74
2023/12/14 12:22:25;;;;;;;2.10;0.90;;;9.40;98.60;;;;;;5019012;28;20041;-76
2023/12/14 12:24:50;;;;;;;5.38;0.80;;;9.40;98.30;;;;;;5009055;28;20123;-73
2023/12/14 12:27:16;;;;;;;7.28;1.25;;;9.40;98.60;;;;;;5015053;28;21009;-71
2023/12/14 12:29:41;;;;;;;1.08;0.50;;;9.50;98.70;;;;;;5005266;28;20033;-73
2023/12/14 12:32:08;;;;;;;2.40;1.17;;;9.50;98.90;;;;;;5021942;28;20052;-73
2023/12/14 12:34:35;;;;;;;1.42;0.50;;;9.60;99.30;;;;;;5011906;28;20277;-73
2023/12/14 12:37:00;;;;;;;8.30;1.00;;;9.60;99.60;;;;;;5026701;28;20037;-72
2023/12/14 12:39:28;;;;;;;1.48;0.80;;;9.60;99.90;;;;;;5019459;28;20036;-70
2023/12/14 12:41:53;;;;;;;3.30;1.20;;;9.60;99.90;;;;;;5023230;28;20056;-73
2023/12/14 12:44:19;;;;;;;2.38;1.50;;;9.80;99.90;;;;;;5023291;28;20580;-74
2023/12/14 12:46:45;;;;;;;1.33;0.82;;;9.70;99.90;;;;;;5017136;28;20056;-72
2023/12/14 12:49:10;;;;;;;2.03;1.15;;;9.90;99.90;;;;;;5016990;28;20116;-71
2023/12/14 12:51:36;;;;;;;7.05;0.82;;;9.90;99.90;;;;;;5009995;28;20029;-73
2023/12/14 12:54:03;;;;;;;1.35;0.55;;;10.10;99.90;;;;;;5024249;28;20033;-72